sensor_id;sensor_type;location;lat;lon;timestamp;pressure;altitude;pressure_sealevel;temperature;humidity
21236;BME280;10775;42.678;26.324;2023-02-17T00:01:43;99607.03;;;3.88;100.00
21236;BME280;10775;42.678;26.324;2023-02-17T00:04:09;99612.38;;;3.95;100.00
21236;BME280;10775;42.678;26.324;2023-02-17T00:06:35;99607.19;;;3.96;100.00
21236;BME280;10775;42.678;26.324;2023-02-17T00:09:01;99603.66;;;3.91;100.00
21236;BME280;10775;42.678;26.324;2023-02-17T00:11:27;99599.09;;;3.79;100.00
21236;BME280;10775;42.678;26.324;2023-02-17T00:13:53;99600.50;;;3.65;100.00
21236;BME280;10775;42.678;26.324;2023-02-17T00:16:20;99597.34;;;3.78;100.00
21236;BME280;10775;42.678;26.324;2023-02-17T00:18:50;99596.78;;;3.91;100.00
21236;BME280;10775;42.678;26.324;2023-02-17T00:21:18;99601.25;;;4.00;100.00
21236;BME280;10775;42.678;26.324;2023-02-17T00:23:46;99596.09;;;4.00;100.00
21236;BME280;10775;42.678;26.324;2023-02-17T00:26:12;99588.28;;;3.97;100.00
21236;BME280;10775;42.678;26.324;2023-02-17T00:28:38;99590.69;;;3.89;100.00
21236;BME280;10775;42.678;26.324;2023-02-17T00:31:14;99587.34;;;3.95;100.00
21236;BME280;10775;42.678;26.324;2023-02-17T00:33:39;99580.53;;;3.99;100.00
21236;BME280;10775;42.678;26.324;2023-02-17T00:36:07;99585.69;;;3.97;100.00
21236;BME280;10775;42.678;26.324;2023-02-17T00:38:33;99578.03;;;4.03;100.00
21236;BME280;10775;42.678;26.324;2023-02-17T00:40:59;99577.25;;;4.07;100.00
21236;BME280;10775;42.678;26.324;2023-02-17T00:43:25;99578.06;;;4.05;100.00
21236;BME280;10775;42.678;26.324;2023-02-17T00:45:50;99571.13;;;4.04;100.00
21236;BME280;10775;42.678;26.324;2023-02-17T00:48:16;99563.81;;;3.83;100.00
21236;BME280;10775;42.678;26.324;2023-02-17T00:50:41;99567.78;;;3.67;100.00
21236;BME280;10775;42.678;26.324;2023-02-17T00:53:06;99571.88;;;3.56;100.00
21236;BME280;10775;42.678;26.324;2023-02-17T00:55:32;99570.84;;;3.49;100.00
21236;BME280;10775;42.678;26.324;2023-02-17T00:57:57;99563.25;;;3.57;100.00
21236;BME280;10775;42.678;26.324;2023-02-17T01:00:23;99559.16;;;3.68;100.00
21236;BME280;10775;42.678;26.324;2023-02-17T01:02:48;99553.84;;;3.60;100.00
21236;BME280;10775;42.678;26.324;2023-02-17T01:05:14;99544.97;;;3.49;100.00
21236;BME280;10775;42.678;26.324;2023-02-17T01:07:39;99553.59;;;3.49;100.00
21236;BME280;10775;42.678;26.324;2023-02-17T01:10:06;99536.31;;;3.45;100.00
21236;BME280;10775;42.678;26.324;2023-02-17T01:12:32;99530.31;;;3.48;100.00
21236;BME280;10775;42.678;26.324;2023-02-17T01:14:58;99528.81;;;3.59;100.00
21236;BME280;10775;42.678;26.324;2023-02-17T01:17:23;99531.53;;;3.64;100.00
21236;BME280;10775;42.678;26.324;2023-02-17T01:19:49;99526.06;;;3.52;100.00
21236;BME280;10775;42.678;26.324;2023-02-17T01:22:14;99521.13;;;3.61;100.00
21236;BME280;10775;42.678;26.324;2023-02-17T01:24:39;99513.44;;;3.65;100.00
21236;BME280;10775;42.678;26.324;2023-02-17T01:27:05;99516.88;;;3.64;100.00
21236;BME280;10775;42.678;26.324;2023-02-17T01:29:30;99515.84;;;3.58;100.00
21236;BME280;10775;42.678;26.324;2023-02-17T01:31:56;99516.06;;;3.67;100.00
21236;BME280;10775;42.678;26.324;2023-02-17T01:34:21;99509.16;;;3.66;100.00
21236;BME280;10775;42.678;26.324;2023-02-17T01:36:47;99507.38;;;3.63;100.00
21236;BME280;10775;42.678;26.324;2023-02-17T01:39:14;99500.47;;;3.64;100.00
21236;BME280;10775;42.678;26.324;2023-02-17T01:41:40;99504.59;;;3.54;100.00
21236;BME280;10775;42.678;26.324;2023-02-17T01:44:26;99489.91;;;3.53;100.00
21236;BME280;10775;42.678;26.324;2023-02-17T01:46:53;99491.75;;;3.60;100.00
21236;BME280;10775;42.678;26.324;2023-02-17T01:49:28;99492.63;;;3.59;100.00
21236;BME280;10775;42.678;26.324;2023-02-17T01:52:16;99483.09;;;3.57;100.00
21236;BME280;10775;42.678;26.324;2023-02-17T01:54:47;99485.47;;;3.47;100.00
21236;BME280;10775;42.678;26.324;2023-02-17T01:57:15;99484.16;;;3.27;100.00
21236;BME280;10775;42.678;26.324;2023-02-17T01:59:43;99482.56;;;3.32;100.00
21236;BME280;10775;42.678;26.324;2023-02-17T02:02:09;99485.13;;;3.31;100.00
21236;BME280;10775;42.678;26.324;2023-02-17T02:04:36;99481.66;;;3.30;100.00
21236;BME280;10775;42.678;26.324;2023-02-17T02:07:05;99474.50;;;3.18;100.00
21236;BME280;10775;42.678;26.324;2023-02-17T02:09:38;99478.19;;;3.30;100.00
21236;BME280;10775;42.678;26.324;2023-02-17T02:12:21;99473.09;;;3.33;100.00
21236;BME280;10775;42.678;26.324;2023-02-17T02:14:48;99471.41;;;3.35;100.00
21236;BME280;10775;42.678;26.324;2023-02-17T02:33:59;99469.63;;;3.32;100.00
21236;BME280;10775;42.678;26.324;2023-02-17T02:36:35;99475.72;;;3.34;100.00
21236;BME280;10775;42.678;26.324;2023-02-17T02:39:20;99468.09;;;3.40;100.00
21236;BME280;10775;42.678;26.324;2023-02-17T02:41:54;99467.19;;;3.38;100.00
21236;BME280;10775;42.678;26.324;2023-02-17T02:44:21;99475.97;;;3.46;100.00
21236;BME280;10775;42.678;26.324;2023-02-17T02:47:05;99474.16;;;3.42;100.00
21236;BME280;10775;42.678;26.324;2023-02-17T02:49:33;99481.03;;;3.40;100.00
21236;BME280;10775;42.678;26.324;2023-02-17T02:52:07;99487.72;;;3.32;100.00
21236;BME280;10775;42.678;26.324;2023-02-17T02:54:51;99481.63;;;3.29;100.00
21236;BME280;10775;42.678;26.324;2023-02-17T03:00:48;99479.56;;;3.12;100.00
21236;BME280;10775;42.678;26.324;2023-02-17T03:11:23;99492.34;;;3.08;100.00
21236;BME280;10775;42.678;26.324;2023-02-17T03:14:08;99490.94;;;3.22;100.00
21236;BME280;10775;42.678;26.324;2023-02-17T03:16:36;99483.28;;;3.26;100.00
21236;BME280;10775;42.678;26.324;2023-02-17T03:19:02;99492.97;;;3.35;100.00
21236;BME280;10775;42.678;26.324;2023-02-17T03:21:36;99488.56;;;3.31;100.00
21236;BME280;10775;42.678;26.324;2023-02-17T03:24:03;99496.25;;;3.28;100.00
21236;BME280;10775;42.678;26.324;2023-02-17T03:26:28;99491.84;;;3.22;100.00
21236;BME280;10775;42.678;26.324;2023-02-17T03:28:54;99500.41;;;3.21;100.00
21236;BME280;10775;42.678;26.324;2023-02-17T03:31:19;99501.19;;;3.17;100.00
21236;BME280;10775;42.678;26.324;2023-02-17T03:33:45;99495.88;;;3.11;100.00
21236;BME280;10775;42.678;26.324;2023-02-17T03:36:10;99501.56;;;2.96;100.00
21236;BME280;10775;42.678;26.324;2023-02-17T03:38:36;99501.13;;;2.78;100.00
21236;BME280;10775;42.678;26.324;2023-02-17T03:41:01;99498.84;;;2.90;100.00
21236;BME280;10775;42.678;26.324;2023-02-17T03:43:27;99510.03;;;2.89;100.00
21236;BME280;10775;42.678;26.324;2023-02-17T03:45:52;99503.31;;;2.97;100.00
21236;BME280;10775;42.678;26.324;2023-02-17T03:48:18;99500.91;;;3.05;100.00
21236;BME280;10775;42.678;26.324;2023-02-17T03:50:43;99499.63;;;2.88;100.00
21236;BME280;10775;42.678;26.324;2023-02-17T03:53:10;99499.09;;;2.65;100.00
21236;BME280;10775;42.678;26.324;2023-02-17T03:55:35;99492.84;;;2.56;100.00
21236;BME280;10775;42.678;26.324;2023-02-17T03:58:01;99490.66;;;2.73;100.00
21236;BME280;10775;42.678;26.324;2023-02-17T04:00:27;99496.88;;;2.80;100.00
21236;BME280;10775;42.678;26.324;2023-02-17T04:02:52;99498.78;;;2.87;100.00
21236;BME280;10775;42.678;26.324;2023-02-17T04:05:18;99507.44;;;2.89;100.00
21236;BME280;10775;42.678;26.324;2023-02-17T04:07:43;99504.06;;;2.93;100.00
21236;BME280;10775;42.678;26.324;2023-02-17T04:10:09;99507.63;;;2.98;100.00
21236;BME280;10775;42.678;26.324;2023-02-17T04:12:35;99493.81;;;2.96;100.00
21236;BME280;10775;42.678;26.324;2023-02-17T04:15:00;99498.25;;;3.02;100.00
21236;BME280;10775;42.678;26.324;2023-02-17T04:17:26;99496.31;;;2.93;100.00
21236;BME280;10775;42.678;26.324;2023-02-17T04:19:51;99494.97;;;2.73;100.00
21236;BME280;10775;42.678;26.324;2023-02-17T04:22:17;99502.16;;;2.50;100.00
21236;BME280;10775;42.678;26.324;2023-02-17T04:24:42;99498.31;;;2.34;100.00
21236;BME280;10775;42.678;26.324;2023-02-17T04:27:07;99501.75;;;2.34;100.00
21236;BME280;10775;42.678;26.324;2023-02-17T04:29:33;99495.47;;;2.58;100.00
21236;BME280;10775;42.678;26.324;2023-02-17T04:31:59;99496.56;;;2.68;100.00
21236;BME280;10775;42.678;26.324;2023-02-17T04:34:24;99491.34;;;2.65;100.00
21236;BME280;10775;42.678;26.324;2023-02-17T04:36:50;99496.13;;;2.49;100.00
21236;BME280;10775;42.678;26.324;2023-02-17T04:39:15;99491.81;;;2.50;100.00
21236;BME280;10775;42.678;26.324;2023-02-17T04:41:41;99498.78;;;2.52;100.00
21236;BME280;10775;42.678;26.324;2023-02-17T04:44:06;99493.59;;;2.51;100.00
21236;BME280;10775;42.678;26.324;2023-02-17T04:46:32;99489.47;;;2.59;100.00
21236;BME280;10775;42.678;26.324;2023-02-17T04:48:57;99504.91;;;2.57;100.00
21236;BME280;10775;42.678;26.324;2023-02-17T04:51:23;99504.59;;;2.44;100.00
21236;BME280;10775;42.678;26.324;2023-02-17T04:53:48;99504.47;;;2.39;100.00
21236;BME280;10775;42.678;26.324;2023-02-17T04:56:13;99501.63;;;2.63;100.00
21236;BME280;10775;42.678;26.324;2023-02-17T04:58:39;99500.72;;;2.61;100.00
21236;BME280;10775;42.678;26.324;2023-02-17T05:01:04;99496.50;;;2.65;100.00
21236;BME280;10775;42.678;26.324;2023-02-17T05:03:30;99497.38;;;2.65;100.00
21236;BME280;10775;42.678;26.324;2023-02-17T05:05:55;99497.53;;;2.71;100.00
21236;BME280;10775;42.678;26.324;2023-02-17T05:08:21;99506.41;;;2.82;100.00
21236;BME280;10775;42.678;26.324;2023-02-17T05:10:46;99504.66;;;2.81;100.00
21236;BME280;10775;42.678;26.324;2023-02-17T05:13:12;99508.31;;;2.90;100.00
21236;BME280;10775;42.678;26.324;2023-02-17T05:15:37;99504.00;;;2.90;100.00
21236;BME280;10775;42.678;26.324;2023-02-17T05:18:03;99498.88;;;2.92;100.00
21236;BME280;10775;42.678;26.324;2023-02-17T05:20:28;99509.31;;;2.96;100.00
21236;BME280;10775;42.678;26.324;2023-02-17T05:22:54;99508.50;;;2.99;100.00
21236;BME280;10775;42.678;26.324;2023-02-17T05:25:19;99516.44;;;3.07;100.00
21236;BME280;10775;42.678;26.324;2023-02-17T05:27:44;99513.66;;;2.99;100.00
21236;BME280;10775;42.678;26.324;2023-02-17T05:30:10;99514.41;;;2.93;100.00
21236;BME280;10775;42.678;26.324;2023-02-17T05:32:36;99519.75;;;3.01;100.00
21236;BME280;10775;42.678;26.324;2023-02-17T05:35:01;99518.81;;;2.97;100.00
21236;BME280;10775;42.678;26.324;2023-02-17T05:37:27;99525.78;;;3.00;100.00
21236;BME280;10775;42.678;26.324;2023-02-17T05:39:52;99520.28;;;3.24;100.00
21236;BME280;10775;42.678;26.324;2023-02-17T05:42:18;99525.63;;;3.30;100.00
21236;BME280;10775;42.678;26.324;2023-02-17T05:44:43;99526.59;;;3.35;100.00
21236;BME280;10775;42.678;26.324;2023-02-17T05:47:08;99521.44;;;3.37;100.00
21236;BME280;10775;42.678;26.324;2023-02-17T05:49:34;99519.00;;;3.43;100.00
21236;BME280;10775;42.678;26.324;2023-02-17T05:52:00;99520.78;;;3.45;100.00
21236;BME280;10775;42.678;26.324;2023-02-17T05:54:26;99524.06;;;3.38;100.00
21236;BME280;10775;42.678;26.324;2023-02-17T05:56:51;99519.41;;;3.23;100.00
21236;BME280;10775;42.678;26.324;2023-02-17T05:59:17;99518.50;;;3.20;100.00
21236;BME280;10775;42.678;26.324;2023-02-17T06:01:42;99519.81;;;3.42;100.00
21236;BME280;10775;42.678;26.324;2023-02-17T06:04:08;99522.44;;;3.43;100.00
21236;BME280;10775;42.678;26.324;2023-02-17T06:06:33;99529.53;;;3.52;100.00
21236;BME280;10775;42.678;26.324;2023-02-17T06:08:59;99523.88;;;3.68;100.00
21236;BME280;10775;42.678;26.324;2023-02-17T06:11:24;99527.31;;;3.69;100.00
21236;BME280;10775;42.678;26.324;2023-02-17T06:13:50;99524.75;;;3.70;100.00
21236;BME280;10775;42.678;26.324;2023-02-17T06:16:15;99525.63;;;3.71;100.00
21236;BME280;10775;42.678;26.324;2023-02-17T06:18:40;99526.34;;;3.64;100.00
21236;BME280;10775;42.678;26.324;2023-02-17T06:21:06;99529.19;;;3.76;100.00
21236;BME280;10775;42.678;26.324;2023-02-17T06:23:31;99520.84;;;3.89;100.00
21236;BME280;10775;42.678;26.324;2023-02-17T06:25:57;99526.13;;;3.94;99.89
21236;BME280;10775;42.678;26.324;2023-02-17T06:28:22;99529.66;;;3.99;100.00
21236;BME280;10775;42.678;26.324;2023-02-17T06:30:48;99519.47;;;4.07;100.00
21236;BME280;10775;42.678;26.324;2023-02-17T06:33:13;99525.75;;;4.20;99.95
21236;BME280;10775;42.678;26.324;2023-02-17T06:35:39;99533.72;;;4.30;99.46
21236;BME280;10775;42.678;26.324;2023-02-17T06:38:04;99534.66;;;4.35;96.93
21236;BME280;10775;42.678;26.324;2023-02-17T06:40:30;99532.91;;;4.34;97.61
21236;BME280;10775;42.678;26.324;2023-02-17T06:42:55;99535.63;;;4.41;96.69
21236;BME280;10775;42.678;26.324;2023-02-17T06:45:20;99540.00;;;4.43;95.71
21236;BME280;10775;42.678;26.324;2023-02-17T06:47:46;99534.19;;;4.56;96.55
21236;BME280;10775;42.678;26.324;2023-02-17T06:50:12;99533.44;;;4.65;93.87
21236;BME280;10775;42.678;26.324;2023-02-17T06:52:37;99537.84;;;4.69;94.45
21236;BME280;10775;42.678;26.324;2023-02-17T06:55:03;99528.53;;;4.80;93.50
21236;BME280;10775;42.678;26.324;2023-02-17T06:57:29;99526.88;;;4.86;93.79
21236;BME280;10775;42.678;26.324;2023-02-17T06:59:54;99534.78;;;4.92;92.84
21236;BME280;10775;42.678;26.324;2023-02-17T07:02:20;99527.13;;;5.01;92.72
21236;BME280;10775;42.678;26.324;2023-02-17T07:04:45;99529.84;;;5.09;92.46
21236;BME280;10775;42.678;26.324;2023-02-17T07:07:11;99526.53;;;5.17;91.25
21236;BME280;10775;42.678;26.324;2023-02-17T07:09:37;99525.88;;;5.31;91.98
21236;BME280;10775;42.678;26.324;2023-02-17T07:12:03;99531.19;;;5.40;90.61
21236;BME280;10775;42.678;26.324;2023-02-17T07:14:31;99529.81;;;5.65;93.21
21236;BME280;10775;42.678;26.324;2023-02-17T07:16:57;99519.66;;;5.85;92.74
21236;BME280;10775;42.678;26.324;2023-02-17T07:19:23;99522.31;;;5.89;91.80
21236;BME280;10775;42.678;26.324;2023-02-17T07:21:48;99530.34;;;6.03;91.05
21236;BME280;10775;42.678;26.324;2023-02-17T07:24:13;99523.47;;;6.10;94.91
21236;BME280;10775;42.678;26.324;2023-02-17T07:26:39;99522.50;;;5.99;94.76
21236;BME280;10775;42.678;26.324;2023-02-17T07:29:06;99526.22;;;6.22;94.49
21236;BME280;10775;42.678;26.324;2023-02-17T07:31:32;99516.69;;;6.23;95.03
21236;BME280;10775;42.678;26.324;2023-02-17T07:33:59;99528.34;;;6.63;99.90
21236;BME280;10775;42.678;26.324;2023-02-17T07:36:24;99528.34;;;6.63;92.33
21236;BME280;10775;42.678;26.324;2023-02-17T07:38:50;99538.03;;;6.78;97.69
21236;BME280;10775;42.678;26.324;2023-02-17T07:41:17;99532.16;;;7.02;98.28
21236;BME280;10775;42.678;26.324;2023-02-17T07:43:44;99531.69;;;6.47;92.21
21236;BME280;10775;42.678;26.324;2023-02-17T07:46:10;99532.84;;;6.81;100.00
21236;BME280;10775;42.678;26.324;2023-02-17T07:48:36;99538.34;;;7.18;100.00
21236;BME280;10775;42.678;26.324;2023-02-17T07:51:06;99534.16;;;7.37;99.19
21236;BME280;10775;42.678;26.324;2023-02-17T07:53:32;99532.81;;;8.16;95.10
21236;BME280;10775;42.678;26.324;2023-02-17T07:55:58;99530.34;;;9.19;92.10
21236;BME280;10775;42.678;26.324;2023-02-17T07:58:23;99520.53;;;10.07;85.97
21236;BME280;10775;42.678;26.324;2023-02-17T08:00:49;99540.31;;;10.60;78.16
21236;BME280;10775;42.678;26.324;2023-02-17T08:03:14;99527.97;;;10.82;75.97
21236;BME280;10775;42.678;26.324;2023-02-17T08:05:40;99530.06;;;10.12;76.92
21236;BME280;10775;42.678;26.324;2023-02-17T08:08:08;99524.16;;;9.63;77.49
21236;BME280;10775;42.678;26.324;2023-02-17T08:10:52;99517.97;;;9.97;82.13
21236;BME280;10775;42.678;26.324;2023-02-17T08:13:36;99517.84;;;10.28;80.69
21236;BME280;10775;42.678;26.324;2023-02-17T08:16:02;99520.88;;;10.95;79.50
21236;BME280;10775;42.678;26.324;2023-02-17T08:18:27;99525.50;;;11.59;77.35
21236;BME280;10775;42.678;26.324;2023-02-17T08:20:53;99511.25;;;11.85;73.35
21236;BME280;10775;42.678;26.324;2023-02-17T08:23:19;99517.44;;;11.78;76.49
21236;BME280;10775;42.678;26.324;2023-02-17T08:25:45;99516.91;;;11.45;75.74
21236;BME280;10775;42.678;26.324;2023-02-17T08:28:11;99511.22;;;11.88;78.04
21236;BME280;10775;42.678;26.324;2023-02-17T08:30:37;99511.72;;;12.19;73.83
21236;BME280;10775;42.678;26.324;2023-02-17T08:33:03;99499.97;;;12.48;70.38
21236;BME280;10775;42.678;26.324;2023-02-17T08:35:29;99512.50;;;11.53;70.88
21236;BME280;10775;42.678;26.324;2023-02-17T08:37:55;99515.34;;;12.09;74.86
21236;BME280;10775;42.678;26.324;2023-02-17T08:40:20;99507.56;;;12.65;74.54
21236;BME280;10775;42.678;26.324;2023-02-17T08:42:46;99506.53;;;12.76;72.04
21236;BME280;10775;42.678;26.324;2023-02-17T08:45:14;99506.59;;;13.24;70.72
21236;BME280;10775;42.678;26.324;2023-02-17T08:47:39;99508.84;;;13.46;69.16
21236;BME280;10775;42.678;26.324;2023-02-17T08:50:06;99516.00;;;12.26;63.68
21236;BME280;10775;42.678;26.324;2023-02-17T08:52:33;99518.03;;;12.04;72.92
21236;BME280;10775;42.678;26.324;2023-02-17T08:54:59;99514.34;;;12.78;72.10
21236;BME280;10775;42.678;26.324;2023-02-17T08:57:24;99526.38;;;12.93;69.17
21236;BME280;10775;42.678;26.324;2023-02-17T08:59:51;99525.00;;;12.69;70.94
21236;BME280;10775;42.678;26.324;2023-02-17T09:02:17;99523.78;;;12.32;68.18
21236;BME280;10775;42.678;26.324;2023-02-17T09:04:42;99537.16;;;12.12;71.32
21236;BME280;10775;42.678;26.324;2023-02-17T09:07:10;99545.88;;;11.29;69.65
21236;BME280;10775;42.678;26.324;2023-02-17T09:09:36;99529.34;;;11.24;69.45
21236;BME280;10775;42.678;26.324;2023-02-17T09:12:01;99536.34;;;11.19;67.00
21236;BME280;10775;42.678;26.324;2023-02-17T09:14:27;99532.50;;;11.57;78.85
21236;BME280;10775;42.678;26.324;2023-02-17T09:16:53;99536.06;;;11.50;65.75
21236;BME280;10775;42.678;26.324;2023-02-17T09:19:19;99533.41;;;11.54;76.11
21236;BME280;10775;42.678;26.324;2023-02-17T09:21:45;99526.50;;;12.25;80.63
21236;BME280;10775;42.678;26.324;2023-02-17T09:24:13;99523.47;;;11.89;67.71
21236;BME280;10775;42.678;26.324;2023-02-17T09:26:38;99511.81;;;12.11;78.74
21236;BME280;10775;42.678;26.324;2023-02-17T09:29:04;99518.44;;;12.97;75.18
21236;BME280;10775;42.678;26.324;2023-02-17T09:31:30;99518.16;;;13.14;76.05
21236;BME280;10775;42.678;26.324;2023-02-17T09:33:56;99509.06;;;12.22;65.09
21236;BME280;10775;42.678;26.324;2023-02-17T09:36:25;99518.66;;;11.46;76.08
21236;BME280;10775;42.678;26.324;2023-02-17T09:38:52;99506.03;;;12.50;74.32
21236;BME280;10775;42.678;26.324;2023-02-17T09:41:25;99499.91;;;13.05;76.12
21236;BME280;10775;42.678;26.324;2023-02-17T09:43:53;99501.44;;;13.20;70.08
21236;BME280;10775;42.678;26.324;2023-02-17T09:48:51;99494.63;;;12.54;72.81
21236;BME280;10775;42.678;26.324;2023-02-17T09:51:44;99488.47;;;12.55;67.41
21236;BME280;10775;42.678;26.324;2023-02-17T09:55:17;99482.25;;;12.64;69.36
21236;BME280;10775;42.678;26.324;2023-02-17T09:57:26;99482.47;;;12.48;61.96
21236;BME280;10775;42.678;26.324;2023-02-17T09:59:56;99484.41;;;12.34;63.22
21236;BME280;10775;42.678;26.324;2023-02-17T10:02:33;99479.84;;;12.47;69.29
21236;BME280;10775;42.678;26.324;2023-02-17T10:05:06;99472.72;;;12.58;71.15
21236;BME280;10775;42.678;26.324;2023-02-17T10:07:42;99469.16;;;13.13;69.06
21236;BME280;10775;42.678;26.324;2023-02-17T10:12:42;99461.06;;;13.27;67.09
21236;BME280;10775;42.678;26.324;2023-02-17T10:15:15;99454.78;;;13.34;62.57
21236;BME280;10775;42.678;26.324;2023-02-17T10:20:50;99438.94;;;13.82;61.90
21236;BME280;10775;42.678;26.324;2023-02-17T10:23:20;99431.28;;;13.73;55.47
21236;BME280;10775;42.678;26.324;2023-02-17T10:28:51;99431.38;;;13.20;55.89
21236;BME280;10775;42.678;26.324;2023-02-17T10:36:45;99423.94;;;12.97;60.30
21236;BME280;10775;42.678;26.324;2023-02-17T10:39:53;99423.47;;;12.20;59.16
21236;BME280;10775;42.678;26.324;2023-02-17T10:42:33;99416.28;;;12.31;62.14
21236;BME280;10775;42.678;26.324;2023-02-17T10:45:28;99413.00;;;12.16;64.80
21236;BME280;10775;42.678;26.324;2023-02-17T10:47:58;99424.44;;;12.12;58.15
21236;BME280;10775;42.678;26.324;2023-02-17T10:50:26;99426.78;;;12.29;58.41
21236;BME280;10775;42.678;26.324;2023-02-17T10:52:54;99419.72;;;12.34;62.36
21236;BME280;10775;42.678;26.324;2023-02-17T10:58:33;99418.69;;;12.46;55.86
21236;BME280;10775;42.678;26.324;2023-02-17T11:01:02;99411.75;;;12.42;57.13
21236;BME280;10775;42.678;26.324;2023-02-17T11:03:30;99416.06;;;12.46;58.22
21236;BME280;10775;42.678;26.324;2023-02-17T11:08:59;99406.50;;;12.93;58.84
21236;BME280;10775;42.678;26.324;2023-02-17T11:11:30;99401.38;;;12.87;61.54
21236;BME280;10775;42.678;26.324;2023-02-17T11:16:43;99396.53;;;13.57;64.40
21236;BME280;10775;42.678;26.324;2023-02-17T11:19:24;99393.41;;;13.80;64.61
21236;BME280;10775;42.678;26.324;2023-02-17T11:21:52;99384.72;;;13.78;57.70
21236;BME280;10775;42.678;26.324;2023-02-17T11:24:18;99390.25;;;14.05;65.37
21236;BME280;10775;42.678;26.324;2023-02-17T11:26:57;99391.13;;;14.43;61.26
21236;BME280;10775;42.678;26.324;2023-02-17T11:29:23;99373.34;;;14.54;58.79
21236;BME280;10775;42.678;26.324;2023-02-17T11:32:05;99375.94;;;14.55;52.61
21236;BME280;10775;42.678;26.324;2023-02-17T11:34:35;99369.34;;;15.06;58.44
21236;BME280;10775;42.678;26.324;2023-02-17T11:39:49;99356.19;;;15.06;58.92
21236;BME280;10775;42.678;26.324;2023-02-17T11:42:23;99356.44;;;15.28;56.89
21236;BME280;10775;42.678;26.324;2023-02-17T11:44:50;99346.09;;;15.20;55.23
21236;BME280;10775;42.678;26.324;2023-02-17T11:50:23;99342.44;;;15.26;56.66
21236;BME280;10775;42.678;26.324;2023-02-17T11:56:05;99331.41;;;15.43;52.80
21236;BME280;10775;42.678;26.324;2023-02-17T12:26:15;99295.28;;;15.78;51.19
21236;BME280;10775;42.678;26.324;2023-02-17T12:36:47;99283.91;;;15.76;46.01
21236;BME280;10775;42.678;26.324;2023-02-17T12:39:19;99279.31;;;15.82;46.77
21236;BME280;10775;42.678;26.324;2023-02-17T12:41:52;99282.50;;;15.92;49.26
21236;BME280;10775;42.678;26.324;2023-02-17T12:44:22;99281.41;;;15.71;49.33
21236;BME280;10775;42.678;26.324;2023-02-17T12:46:53;99271.16;;;15.90;58.31
21236;BME280;10775;42.678;26.324;2023-02-17T12:49:33;99269.13;;;15.98;48.88
21236;BME280;10775;42.678;26.324;2023-02-17T12:52:07;99271.34;;;15.54;45.96
21236;BME280;10775;42.678;26.324;2023-02-17T12:54:48;99269.34;;;15.62;50.22
21236;BME280;10775;42.678;26.324;2023-02-17T12:57:21;99269.03;;;15.43;47.63
21236;BME280;10775;42.678;26.324;2023-02-17T12:59:50;99267.03;;;15.52;49.29
21236;BME280;10775;42.678;26.324;2023-02-17T13:02:22;99269.97;;;15.42;53.44
21236;BME280;10775;42.678;26.324;2023-02-17T13:04:52;99270.81;;;15.43;53.22
21236;BME280;10775;42.678;26.324;2023-02-17T13:10:17;99275.13;;;15.46;61.59
21236;BME280;10775;42.678;26.324;2023-02-17T13:12:55;99267.09;;;15.80;53.17
21236;BME280;10775;42.678;26.324;2023-02-17T13:15:29;99272.47;;;16.03;51.22
21236;BME280;10775;42.678;26.324;2023-02-17T13:18:03;99262.56;;;16.10;48.51
21236;BME280;10775;42.678;26.324;2023-02-17T13:20:50;99254.56;;;16.13;56.55
21236;BME280;10775;42.678;26.324;2023-02-17T13:23:32;99256.00;;;16.23;61.72
21236;BME280;10775;42.678;26.324;2023-02-17T13:28:46;99248.19;;;15.94;46.87
21236;BME280;10775;42.678;26.324;2023-02-17T13:31:25;99257.41;;;16.07;56.25
21236;BME280;10775;42.678;26.324;2023-02-17T13:33:52;99264.25;;;16.13;55.30
21236;BME280;10775;42.678;26.324;2023-02-17T13:36:39;99256.66;;;16.03;47.24
21236;BME280;10775;42.678;26.324;2023-02-17T13:39:28;99263.06;;;15.95;46.65
21236;BME280;10775;42.678;26.324;2023-02-17T13:41:57;99257.16;;;15.88;51.25
21236;BME280;10775;42.678;26.324;2023-02-17T13:46:49;99244.28;;;16.05;48.26
21236;BME280;10775;42.678;26.324;2023-02-17T13:49:21;99242.88;;;15.95;49.49
21236;BME280;10775;42.678;26.324;2023-02-17T13:51:48;99223.66;;;15.62;44.87
21236;BME280;10775;42.678;26.324;2023-02-17T13:54:13;99243.31;;;15.52;43.23
21236;BME280;10775;42.678;26.324;2023-02-17T13:56:43;99239.81;;;15.51;40.25
21236;BME280;10775;42.678;26.324;2023-02-17T13:59:15;99248.53;;;15.83;37.34
21236;BME280;10775;42.678;26.324;2023-02-17T14:01:43;99252.56;;;16.20;35.71
21236;BME280;10775;42.678;26.324;2023-02-17T14:04:21;99240.34;;;16.44;41.65
21236;BME280;10775;42.678;26.324;2023-02-17T14:06:48;99254.75;;;16.59;39.06
21236;BME280;10775;42.678;26.324;2023-02-17T14:09:32;99243.94;;;16.41;40.51
21236;BME280;10775;42.678;26.324;2023-02-17T14:12:00;99246.47;;;16.44;35.86
21236;BME280;10775;42.678;26.324;2023-02-17T14:14:30;99250.78;;;16.47;37.49
21236;BME280;10775;42.678;26.324;2023-02-17T14:19:47;99252.31;;;16.27;33.82
21236;BME280;10775;42.678;26.324;2023-02-17T14:22:42;99252.19;;;16.30;44.80
21236;BME280;10775;42.678;26.324;2023-02-17T14:25:11;99254.69;;;16.35;43.73
21236;BME280;10775;42.678;26.324;2023-02-17T14:27:45;99270.16;;;16.21;32.27
21236;BME280;10775;42.678;26.324;2023-02-17T14:30:14;99260.50;;;16.20;39.52
21236;BME280;10775;42.678;26.324;2023-02-17T14:32:39;99264.88;;;16.21;40.79
21236;BME280;10775;42.678;26.324;2023-02-17T14:35:25;99271.25;;;16.14;35.23
21236;BME280;10775;42.678;26.324;2023-02-17T14:37:50;99268.91;;;16.04;35.90
21236;BME280;10775;42.678;26.324;2023-02-17T14:40:21;99276.25;;;15.95;32.41
21236;BME280;10775;42.678;26.324;2023-02-17T14:42:48;99274.41;;;15.98;42.74
21236;BME280;10775;42.678;26.324;2023-02-17T14:45:14;99278.16;;;15.91;40.17
21236;BME280;10775;42.678;26.324;2023-02-17T14:47:43;99282.91;;;15.80;34.25